Time;durP1;ratioP1;P1;durP2;ratioP2;P2;SDS_P1;SDS_P2;PMS_P1;PMS_P2;Temp;Humidity;BMP_temperature;BMP_pressure;BME280_temperature;BME280_humidity;BME280_pressure;Samples;Min_cycle;Max_cycle;Signal;HPM_P1;HPM_P2
2023/04/14 00:03:25;;;;;;;8.50;5.65;;;;;;;8.97;75.19;99624.38;10229260;28;20050;-66
2023/04/14 00:08:26;;;;;;;6.80;4.25;;;;;;;8.92;74.66;99628.41;10246964;28;20111;-66
2023/04/14 00:13:28;;;;;;;8.15;5.40;;;;;;;8.84;75.02;99625.81;10245606;28;20406;-68
2023/04/14 00:18:30;;;;;;;9.25;5.03;;;;;;;8.70;75.50;99645.41;10236507;28;20422;-65
2023/04/14 00:23:31;;;;;;;7.63;4.50;;;;;;;8.69;75.23;99643.75;10244310;28;20218;-65
2023/04/14 00:28:32;;;;;;;7.80;5.47;;;;;;;8.67;74.69;99640.41;10239604;28;20044;-66
2023/04/14 00:33:34;;;;;;;6.57;5.22;;;;;;;8.59;75.11;99640.47;10235103;28;20066;-67
2023/04/14 00:38:35;;;;;;;10.10;5.55;;;;;;;8.45;75.44;99650.97;10239384;28;20059;-67
2023/04/14 00:43:37;;;;;;;9.30;5.93;;;;;;;8.41;74.92;99635.38;10234903;28;20511;-67
2023/04/14 00:48:39;;;;;;;10.05;6.47;;;;;;;8.33;75.15;99636.28;10234836;28;20107;-66
2023/04/14 00:53:41;;;;;;;10.70;6.85;;;;;;;8.19;74.89;99637.88;10234012;28;20494;-65
2023/04/14 00:58:43;;;;;;;8.90;6.88;;;;;;;8.12;75.09;99634.28;10245550;28;20055;-66
2023/04/14 01:03:45;;;;;;;9.65;6.88;;;;;;;8.07;74.87;99629.44;10238118;28;20066;-66
2023/04/14 01:08:50;;;;;;;8.65;6.18;;;;;;;8.02;75.13;99618.44;10239305;28;20791;-66
2023/04/14 01:14:11;;;;;;;9.73;6.78;;;;;;;7.94;75.03;99621.19;10239769;28;20118;-68
2023/04/14 01:19:44;;;;;;;18.08;9.80;;;;;;;7.70;75.28;99620.31;10244075;28;20063;-66
2023/04/14 01:25:30;;;;;;;13.88;8.70;;;;;;;7.58;75.77;99621.69;10236788;28;20051;-68
2023/04/14 01:30:56;;;;;;;15.40;9.27;;;;;;;7.57;75.15;99614.69;10252693;28;20056;-67
2023/04/14 01:36:02;;;;;;;17.33;10.20;;;;;;;7.50;75.67;99635.97;10239027;28;20114;-66
2023/04/14 01:41:07;;;;;;;17.33;8.18;;;;;;;7.50;75.29;99627.09;10235575;28;20171;-67
2023/04/14 01:46:12;;;;;;;13.95;6.97;;;;;;;7.38;75.56;99633.81;10232362;28;20684;-67
2023/04/14 01:51:17;;;;;;;9.80;6.35;;;;;;;7.33;74.83;99629.00;10233718;28;20058;-67
2023/04/14 01:56:20;;;;;;;10.63;5.72;;;;;;;7.28;74.90;99639.38;10233545;28;20055;-66
2023/04/14 02:01:24;;;;;;;9.70;5.57;;;;;;;7.17;75.38;99635.25;10237855;28;20051;-66
2023/04/14 02:06:30;;;;;;;9.70;6.40;;;;;;;7.13;75.64;99629.41;10239079;28;20067;-66
2023/04/14 02:11:34;;;;;;;9.90;6.60;;;;;;;7.02;75.30;99635.09;10233772;28;20054;-65
2023/04/14 02:16:37;;;;;;;10.52;6.45;;;;;;;6.91;75.39;99636.31;10224799;28;20051;-66
2023/04/14 02:21:39;;;;;;;9.77;5.55;;;;;;;6.71;75.93;99656.34;10225734;28;20047;-66
2023/04/14 02:26:52;;;;;;;12.15;6.72;;;;;;;6.66;76.04;99654.19;10230604;28;20047;-66
2023/04/14 02:32:04;;;;;;;10.70;5.53;;;;;;;6.67;75.35;99663.03;10226046;28;20073;-64
2023/04/14 02:37:17;;;;;;;11.00;6.13;;;;;;;6.63;75.37;99675.06;10230911;28;20063;-66
2023/04/14 02:42:24;;;;;;;11.55;6.35;;;;;;;6.45;75.49;99686.72;10230759;28;20091;-67
2023/04/14 02:47:31;;;;;;;10.32;6.60;;;;;;;6.46;75.34;99684.91;10230436;28;20047;-66
2023/04/14 02:52:33;;;;;;;14.95;7.20;;;;;;;6.43;75.18;99686.06;10238205;28;20059;-66
2023/04/14 02:57:35;;;;;;;9.27;5.50;;;;;;;6.35;75.76;99689.56;10235025;28;20050;-66
2023/04/14 03:02:37;;;;;;;13.13;5.53;;;;;;;6.29;75.80;99689.38;10229706;28;20055;-65
2023/04/14 03:07:42;;;;;;;11.88;6.43;;;;;;;6.22;75.32;99691.03;10228525;28;20147;-66
2023/04/14 03:12:46;;;;;;;12.35;6.07;;;;;;;6.05;75.41;99692.84;10233715;28;20048;-66
2023/04/14 03:17:52;;;;;;;9.43;5.38;;;;;;;5.93;75.67;99693.09;10232968;28;20469;-66
2023/04/14 03:23:04;;;;;;;11.23;5.70;;;;;;;5.93;76.09;99692.28;10236678;28;20055;-67
2023/04/14 03:28:12;;;;;;;11.68;6.05;;;;;;;5.93;76.10;99684.28;10238895;28;20062;-67
2023/04/14 03:33:19;;;;;;;14.80;6.00;;;;;;;5.97;75.67;99687.50;10233923;28;20107;-65
2023/04/14 03:38:25;;;;;;;12.67;6.20;;;;;;;5.99;75.49;99688.16;10249049;28;20095;-66
2023/04/14 03:43:27;;;;;;;11.40;5.75;;;;;;;5.98;75.62;99697.97;10236149;28;20292;-67
2023/04/14 03:48:32;;;;;;;11.80;5.28;;;;;;;5.95;76.15;99682.31;10231582;28;20055;-68
2023/04/14 03:53:36;;;;;;;9.27;4.65;;;;;;;5.82;75.97;99682.72;10239229;28;20063;-67
2023/04/14 03:58:40;;;;;;;11.90;5.43;;;;;;;5.81;75.41;99682.91;10232718;28;20184;-68
2023/04/14 04:03:43;;;;;;;12.55;6.05;;;;;;;5.80;75.81;99683.91;10231147;28;20047;-67
2023/04/14 04:08:47;;;;;;;8.38;4.20;;;;;;;5.68;75.68;99684.19;10231832;28;20139;-68
2023/04/14 04:13:52;;;;;;;14.45;4.82;;;;;;;5.67;76.22;99695.84;10232438;28;20059;-67
2023/04/14 04:18:53;;;;;;;67.15;7.30;;;;;;;5.59;76.20;99693.16;10231303;28;20043;-68
2023/04/14 04:23:56;;;;;;;77.80;8.65;;;;;;;5.42;76.23;99702.91;10218810;28;20546;-67
2023/04/14 04:28:59;;;;;;;19.20;7.00;;;;;;;5.32;76.47;99707.50;10224657;28;20107;-67
2023/04/14 04:34:04;;;;;;;13.82;7.28;;;;;;;5.29;76.25;99703.34;10227614;28;20619;-67
2023/04/14 04:39:06;;;;;;;14.90;8.60;;;;;;;5.40;76.31;99712.06;10228049;28;20439;-66
2023/04/14 04:44:08;;;;;;;17.85;8.38;;;;;;;5.43;76.49;99715.25;10227566;28;20203;-68
2023/04/14 04:49:09;;;;;;;20.45;8.43;;;;;;;5.45;75.75;99720.41;10231348;28;20154;-67
2023/04/14 04:54:11;;;;;;;16.25;9.02;;;;;;;5.51;75.80;99719.75;10235527;28;20062;-67
2023/04/14 04:59:12;;;;;;;16.85;7.72;;;;;;;5.54;75.62;99722.13;10233669;28;20321;-67
2023/04/14 05:04:14;;;;;;;15.30;7.20;;;;;;;5.54;75.80;99732.78;10231598;28;20047;-68
2023/04/14 05:09:15;;;;;;;16.13;6.95;;;;;;;5.46;75.65;99730.06;10228587;28;20079;-68
2023/04/14 05:14:17;;;;;;;12.23;7.38;;;;;;;5.52;76.47;99726.78;10218862;28;20097;-68
2023/04/14 05:19:19;;;;;;;14.82;6.75;;;;;;;5.49;76.49;99733.28;10217426;28;20447;-68
2023/04/14 05:24:20;;;;;;;12.05;7.10;;;;;;;5.56;76.53;99741.47;10211511;28;20051;-67
2023/04/14 05:29:21;;;;;;;12.23;6.45;;;;;;;5.62;76.50;99734.66;10217495;28;20059;-67
2023/04/14 05:34:23;;;;;;;12.30;6.70;;;;;;;5.71;76.58;99733.72;10210013;28;20059;-68
2023/04/14 05:39:24;;;;;;;10.27;6.00;;;;;;;5.83;76.15;99734.25;10215157;28;20047;-68
2023/04/14 05:44:25;;;;;;;20.30;6.88;;;;;;;5.95;76.18;99730.31;10214187;28;20071;-69
2023/04/14 05:49:27;;;;;;;10.85;5.97;;;;;;;6.09;76.13;99726.19;10217095;28;20061;-68
2023/04/14 05:54:28;;;;;;;8.65;5.93;;;;;;;6.20;76.40;99725.91;10210495;28;20562;-69
2023/04/14 05:59:30;;;;;;;11.60;6.35;;;;;;;6.21;76.62;99729.41;10218123;28;20067;-69
2023/04/14 06:04:32;;;;;;;11.10;6.97;;;;;;;6.25;76.95;99739.59;10209511;28;20058;-68
2023/04/14 06:09:34;;;;;;;12.52;7.57;;;;;;;6.38;77.38;99743.59;10210986;28;20051;-68
2023/04/14 06:14:35;;;;;;;11.45;7.40;;;;;;;6.59;77.29;99748.50;10214476;28;20111;-68
2023/04/14 06:19:37;;;;;;;22.95;6.90;;;;;;;6.72;77.05;99747.00;10218187;28;20113;-67
2023/04/14 06:24:39;;;;;;;12.10;7.38;;;;;;;6.95;77.00;99736.50;10211465;28;20082;-68
2023/04/14 06:29:40;;;;;;;12.85;6.55;;;;;;;7.06;77.27;99739.81;10211398;28;20078;-69
2023/04/14 06:34:42;;;;;;;12.13;7.15;;;;;;;7.25;76.85;99735.97;10208904;28;20047;-68
2023/04/14 06:39:43;;;;;;;11.05;6.05;;;;;;;7.40;77.11;99738.75;10210730;28;20388;-67
2023/04/14 06:44:45;;;;;;;12.77;6.20;;;;;;;7.59;77.58;99741.06;10209590;28;20506;-68
2023/04/14 06:49:46;;;;;;;18.20;6.18;;;;;;;7.72;77.45;99727.97;10207694;28;20507;-68
2023/04/14 06:54:48;;;;;;;10.02;5.65;;;;;;;7.85;77.67;99732.75;10212134;28;20051;-68
2023/04/14 06:59:50;;;;;;;9.23;5.53;;;;;;;8.07;77.55;99741.84;10207918;28;20127;-68
2023/04/14 07:04:51;;;;;;;11.02;6.57;;;;;;;8.33;76.85;99746.94;10212207;28;20052;-68
2023/04/14 07:09:52;;;;;;;12.30;6.45;;;;;;;8.28;77.03;99743.09;10216456;28;20146;-68
2023/04/14 07:14:54;;;;;;;19.25;8.45;;;;;;;8.41;76.37;99754.13;10208397;28;20091;-68
2023/04/14 07:19:55;;;;;;;21.67;6.53;;;;;;;8.50;76.19;99752.22;10206768;28;20057;-68
2023/04/14 07:24:57;;;;;;;19.48;8.32;;;;;;;8.66;75.57;99746.72;10206998;28;20129;-68
2023/04/14 07:29:58;;;;;;;16.60;7.82;;;;;;;8.87;75.73;99758.66;10208696;28;20059;-68
2023/04/14 07:35:00;;;;;;;10.30;6.80;;;;;;;9.04;75.58;99756.66;10206963;28;20052;-68
2023/04/14 07:40:02;;;;;;;14.63;7.35;;;;;;;9.22;75.34;99759.88;10206393;28;20118;-68
2023/04/14 07:45:03;;;;;;;14.05;6.30;;;;;;;9.08;75.52;99768.69;10204088;28;20063;-68
2023/04/14 07:50:05;;;;;;;14.63;7.40;;;;;;;9.09;75.34;99756.97;10208138;28;20055;-68
2023/04/14 07:55:07;;;;;;;22.88;7.78;;;;;;;9.10;74.94;99745.19;10211738;28;20048;-69
2023/04/14 08:00:09;;;;;;;14.15;8.15;;;;;;;8.80;75.93;99738.94;10211542;28;20051;-69
2023/04/14 08:05:10;;;;;;;16.17;8.20;;;;;;;8.73;76.02;99736.97;10214656;28;20574;-69
2023/04/14 08:10:12;;;;;;;13.75;7.10;;;;;;;8.86;75.23;99728.31;10214483;28;20059;-67
2023/04/14 08:15:13;;;;;;;14.50;8.45;;;;;;;8.98;75.37;99731.41;10218499;28;20145;-67
2023/04/14 08:20:15;;;;;;;19.27;8.25;;;;;;;8.95;75.17;99741.66;10217957;28;20070;-68
2023/04/14 08:25:16;;;;;;;12.90;7.10;;;;;;;8.62;76.31;99729.34;10217565;28;20043;-68
2023/04/14 08:30:18;;;;;;;17.67;8.73;;;;;;;8.62;75.96;99723.16;10220320;28;20135;-69
2023/04/14 08:35:23;;;;;;;17.98;8.85;;;;;;;8.87;75.83;99708.56;10221250;28;20051;-68
2023/04/14 08:40:42;;;;;;;21.27;8.77;;;;;;;9.23;75.09;99707.88;10216811;28;20137;-68
2023/04/14 08:45:44;;;;;;;17.60;9.82;;;;;;;9.35;75.07;99716.31;10209570;28;20447;-69
2023/04/14 08:51:03;;;;;;;16.73;8.68;;;;;;;9.72;74.92;99711.88;10194731;28;20126;-69
2023/04/14 08:56:08;;;;;;;18.05;8.63;;;;;;;10.07;75.01;99707.56;10212641;28;20134;-67
2023/04/14 09:01:10;;;;;;;13.40;8.35;;;;;;;10.43;74.92;99703.25;10233019;28;20597;-68
2023/04/14 09:06:12;;;;;;;16.95;8.80;;;;;;;10.65;74.43;99709.44;10220688;28;20051;-69
2023/04/14 09:11:15;;;;;;;14.93;8.52;;;;;;;10.93;74.04;99692.53;10216626;28;20082;-69
2023/04/14 09:16:17;;;;;;;17.08;8.40;;;;;;;11.06;74.05;99692.63;10214658;28;20178;-68
2023/04/14 09:21:19;;;;;;;15.57;8.20;;;;;;;11.19;73.86;99683.81;10210907;28;20197;-68
2023/04/14 09:26:41;;;;;;;12.80;6.40;;;;;;;11.56;73.21;99679.91;10212391;28;20056;-67
2023/04/14 09:31:46;;;;;;;12.93;6.93;;;;;;;11.73;72.82;99676.88;10214680;28;20036;-66
2023/04/14 09:37:06;;;;;;;13.32;7.18;;;;;;;11.98;72.54;99675.34;10213630;28;20127;-67
2023/04/14 09:42:07;;;;;;;10.85;5.80;;;;;;;12.06;73.05;99668.94;10217634;28;21535;-67
2023/04/14 09:47:09;;;;;;;11.85;6.00;;;;;;;12.45;72.03;99673.59;10214491;28;20047;-67
2023/04/14 09:52:10;;;;;;;11.07;5.40;;;;;;;12.56;72.07;99665.94;10220965;28;20035;-67
2023/04/14 09:57:23;;;;;;;9.40;5.07;;;;;;;12.69;71.63;99661.38;10210583;28;20071;-69
2023/04/14 10:02:25;;;;;;;9.40;5.32;;;;;;;13.00;70.93;99646.44;10217525;28;20078;-67
2023/04/14 10:07:27;;;;;;;10.48;5.25;;;;;;;13.22;71.01;99652.44;10212367;28;20083;-68
2023/04/14 10:12:28;;;;;;;10.13;4.35;;;;;;;13.58;70.34;99643.00;10210258;28;20075;-68
2023/04/14 10:17:30;;;;;;;7.90;4.65;;;;;;;13.94;69.58;99638.94;10210827;28;20112;-66
2023/04/14 10:22:35;;;;;;;8.60;3.72;;;;;;;14.26;69.01;99630.84;10212347;28;20087;-67
2023/04/14 10:27:37;;;;;;;10.15;3.15;;;;;;;14.61;68.12;99628.56;10212126;28;20137;-67
2023/04/14 10:32:41;;;;;;;6.63;3.50;;;;;;;14.91;67.50;99622.47;10208634;28;20139;-66
2023/04/14 10:37:50;;;;;;;4.20;1.45;;;;;;;15.19;65.72;99616.56;10214256;28;20066;-66
2023/04/14 10:42:53;;;;;;;7.60;1.80;;;;;;;15.70;65.30;99619.09;10208890;28;20396;-66
2023/04/14 10:47:55;;;;;;;3.70;1.10;;;;;;;16.29;63.93;99614.81;10215094;28;20139;-66
2023/04/14 10:52:57;;;;;;;8.73;1.60;;;;;;;16.69;62.89;99613.34;10218840;28;20055;-67
2023/04/14 10:58:05;;;;;;;4.10;1.85;;;;;;;16.95;62.79;99606.66;10216362;28;20413;-67
2023/04/14 11:03:12;;;;;;;10.70;3.05;;;;;;;16.94;62.71;99596.84;10210307;28;20099;-66
2023/04/14 11:08:13;;;;;;;;;;;;;;;16.96;65.62;99592.84;10213723;28;20056;-67
2023/04/14 11:13:16;;;;;;;7.15;2.00;;;;;;;17.29;62.91;99583.22;10235727;28;19929;-67
2023/04/14 11:18:27;;;;;;;4.07;1.80;;;;;;;17.78;60.23;99578.25;10219674;28;20090;-64
2023/04/14 11:23:29;;;;;;;11.73;3.38;;;;;;;17.80;60.02;99576.09;10232913;28;20047;-66
2023/04/14 11:28:34;;;;;;;8.75;4.15;;;;;;;17.86;58.25;99568.09;10227351;28;20052;-67
2023/04/14 11:33:40;;;;;;;10.30;4.53;;;;;;;18.02;58.36;99565.41;10218656;28;20059;-68
2023/04/14 11:38:42;;;;;;;9.00;3.87;;;;;;;18.36;58.47;99568.16;10204133;28;20078;-67
2023/04/14 11:43:45;;;;;;;11.50;4.68;;;;;;;18.08;57.18;99566.31;10230291;28;20511;-68
2023/04/14 11:48:47;;;;;;;15.13;5.53;;;;;;;18.34;56.18;99561.31;10227721;28;20487;-67
2023/04/14 11:53:48;;;;;;;11.65;4.43;;;;;;;18.22;56.16;99553.22;10221840;28;20043;-68
2023/04/14 11:58:52;;;;;;;6.30;3.70;;;;;;;18.42;55.35;99539.97;10243698;28;20050;-67
2023/04/14 12:03:53;;;;;;;8.48;3.40;;;;;;;18.54;54.48;99528.16;10276177;28;20039;-68
2023/04/14 12:08:55;;;;;;;7.22;2.70;;;;;;;18.69;53.94;99520.22;10267850;28;20036;-67
2023/04/14 12:13:57;;;;;;;8.00;3.50;;;;;;;19.08;53.01;99508.53;10270500;28;20062;-67
2023/04/14 12:18:58;;;;;;;8.70;3.50;;;;;;;19.21;52.51;99511.72;10266074;28;20058;-62
2023/04/14 12:24:01;;;;;;;10.30;2.97;;;;;;;19.16;52.54;99506.19;10223304;28;20084;-61
2023/04/14 12:29:02;;;;;;;8.23;2.15;;;;;;;19.52;51.61;99501.16;10223934;28;20124;-60
2023/04/14 12:34:05;;;;;;;8.80;2.88;;;;;;;20.24;50.77;99492.84;10224557;28;20106;-61
2023/04/14 12:39:07;;;;;;;6.78;2.83;;;;;;;20.54;49.13;99498.53;10231681;28;20055;-60
2023/04/14 12:44:17;;;;;;;7.63;1.98;;;;;;;20.35;48.17;99483.66;10221375;28;20047;-60
2023/04/14 12:49:36;;;;;;;6.28;1.60;;;;;;;21.31;46.92;99490.75;10220161;28;20122;-60
2023/04/14 12:54:47;;;;;;;9.48;1.55;;;;;;;21.69;45.46;99482.41;10234501;28;20064;-64
2023/04/14 12:59:49;;;;;;;3.75;0.85;;;;;;;21.62;46.28;99482.66;10265828;28;20047;-64
2023/04/14 13:04:50;;;;;;;5.43;1.58;;;;;;;22.03;46.07;99471.75;10263263;28;20053;-63
2023/04/14 13:09:52;;;;;;;6.78;1.40;;;;;;;22.32;44.15;99471.25;10259546;28;20091;-63
2023/04/14 13:14:53;;;;;;;4.20;1.23;;;;;;;22.00;44.53;99472.31;10257444;28;20047;-64
2023/04/14 13:19:55;;;;;;;6.07;1.20;;;;;;;22.66;43.11;99456.94;10234257;28;20073;-63
2023/04/14 13:24:59;;;;;;;2.35;1.15;;;;;;;22.95;42.57;99440.69;10267953;28;20051;-64
2023/04/14 13:30:00;;;;;;;6.97;1.25;;;;;;;22.67;41.77;99440.22;10267320;28;20052;-63
2023/04/14 13:35:02;;;;;;;4.63;2.22;;;;;;;22.77;41.65;99434.72;10262756;28;20039;-63
2023/04/14 13:40:05;;;;;;;5.55;1.10;;;;;;;23.06;41.06;99425.84;10272832;28;20086;-63
2023/04/14 13:45:07;;;;;;;5.20;1.02;;;;;;;23.23;40.13;99419.19;10268705;28;20040;-64
2023/04/14 13:50:09;;;;;;;7.28;1.55;;;;;;;23.63;38.80;99411.78;10262653;28;20115;-64
2023/04/14 13:55:11;;;;;;;2.55;0.63;;;;;;;23.55;37.64;99403.06;10263273;28;20063;-64
2023/04/14 14:00:12;;;;;;;2.25;0.50;;;;;;;23.88;37.92;99408.06;10267178;28;20083;-65
2023/04/14 14:05:14;;;;;;;2.42;0.47;;;;;;;24.04;36.93;99395.84;10266613;28;20115;-64
2023/04/14 14:10:15;;;;;;;3.03;0.60;;;;;;;24.30;36.53;99390.09;10274060;28;20043;-65
2023/04/14 14:15:18;;;;;;;2.38;0.70;;;;;;;24.30;36.59;99388.16;10270566;28;20047;-65
2023/04/14 14:20:20;;;;;;;2.58;0.43;;;;;;;24.69;36.67;99367.97;10269277;28;20040;-64
2023/04/14 14:25:21;;;;;;;1.95;0.50;;;;;;;25.23;36.15;99378.81;10266926;28;20035;-64
2023/04/14 14:30:22;;;;;;;2.35;0.40;;;;;;;25.77;35.51;99377.44;10270777;28;20056;-64
2023/04/14 14:35:24;;;;;;;4.68;0.63;;;;;;;26.81;34.09;99366.97;10263116;28;20136;-64
2023/04/14 14:40:27;;;;;;;3.70;0.80;;;;;;;28.22;31.63;99355.91;10269154;28;20102;-64
2023/04/14 14:45:28;;;;;;;4.60;0.60;;;;;;;28.28;30.92;99358.22;10267920;28;20086;-65
2023/04/14 14:50:33;;;;;;;3.35;0.40;;;;;;;28.44;30.17;99360.56;10269957;28;20044;-65
2023/04/14 14:55:34;;;;;;;3.05;0.70;;;;;;;27.63;30.09;99356.03;10263054;28;20158;-65
2023/04/14 15:00:37;;;;;;;2.17;0.60;;;;;;;26.82;30.20;99351.25;10251991;28;20138;-64
2023/04/14 15:05:38;;;;;;;1.17;0.30;;;;;;;26.06;31.00;99366.19;10264096;28;20079;-64
2023/04/14 15:10:40;;;;;;;2.60;0.40;;;;;;;26.21;31.48;99356.84;10264099;28;20047;-64
2023/04/14 15:15:41;;;;;;;1.90;0.68;;;;;;;26.59;30.19;99362.19;10267550;28;20062;-63
2023/04/14 15:25:59;;;;;;;;;;;;;;;25.84;38.00;99360.53;10419470;23;20067;-91
2023/04/14 15:31:12;;;;;;;5.85;0.60;;;;;;;25.35;33.93;99362.69;10358618;23;19926;-64
2023/04/14 15:36:13;;;;;;;1.90;0.45;;;;;;;24.88;32.55;99365.25;10168158;29;20075;-64
2023/04/14 15:41:15;;;;;;;2.80;0.45;;;;;;;24.55;32.33;99367.03;10169876;29;20064;-64
2023/04/14 15:46:17;;;;;;;2.60;0.40;;;;;;;24.26;31.81;99353.31;10170861;29;20088;-64
2023/04/14 15:51:19;;;;;;;1.63;0.38;;;;;;;24.08;32.19;99366.69;10170316;29;20151;-66
2023/04/14 15:56:21;;;;;;;3.17;0.32;;;;;;;23.98;31.96;99365.97;10168920;29;20271;-64
2023/04/14 16:01:23;;;;;;;1.88;0.50;;;;;;;23.90;31.30;99368.22;10169337;29;20037;-63
2023/04/14 16:06:25;;;;;;;4.93;0.25;;;;;;;23.74;31.50;99355.72;10167098;29;20036;-65
2023/04/14 16:11:29;;;;;;;2.60;0.30;;;;;;;23.50;31.32;99351.00;10169156;29;20208;-64
2023/04/14 16:16:31;;;;;;;1.27;0.22;;;;;;;23.71;30.85;99348.88;10171110;29;20048;-64
2023/04/14 16:21:32;;;;;;;2.50;0.20;;;;;;;23.77;31.24;99352.41;10172657;29;20502;-64
2023/04/14 16:26:35;;;;;;;1.92;0.40;;;;;;;24.12;30.09;99350.47;10175913;29;20112;-64
2023/04/14 16:31:37;;;;;;;2.20;0.25;;;;;;;24.22;30.34;99364.06;10178217;29;20045;-64
2023/04/14 16:36:38;;;;;;;1.38;0.20;;;;;;;24.15;29.93;99352.59;10176994;29;20037;-65
2023/04/14 16:41:39;;;;;;;3.22;0.30;;;;;;;24.15;30.30;99350.69;10173704;29;20036;-65
2023/04/14 16:46:41;;;;;;;4.00;0.32;;;;;;;24.03;29.47;99352.19;10174743;29;20044;-65
2023/04/14 16:51:43;;;;;;;2.15;0.30;;;;;;;24.31;28.87;99359.59;10171631;29;20040;-65
2023/04/14 16:56:44;;;;;;;2.78;0.30;;;;;;;24.27;28.13;99365.94;10169952;29;20042;-65
2023/04/14 17:01:46;;;;;;;3.33;0.40;;;;;;;23.73;28.21;99360.38;10171866;29;20048;-64
2023/04/14 17:06:48;;;;;;;3.15;0.30;;;;;;;23.22;27.70;99354.47;10170650;29;20192;-65
2023/04/14 17:11:49;;;;;;;2.67;0.50;;;;;;;22.67;27.71;99358.03;10170443;29;20057;-63
2023/04/14 17:16:51;;;;;;;3.13;0.30;;;;;;;22.68;27.34;99354.19;10172581;29;20153;-65
2023/04/14 17:21:52;;;;;;;2.88;0.35;;;;;;;22.57;27.11;99358.06;10174342;29;20037;-65
2023/04/14 17:26:54;;;;;;;3.08;0.38;;;;;;;22.26;27.74;99360.91;10169646;29;20032;-65
2023/04/14 17:31:55;;;;;;;3.00;0.35;;;;;;;21.77;28.38;99359.56;10171816;29;20112;-64
2023/04/14 17:36:58;;;;;;;1.15;0.35;;;;;;;21.25;28.37;99373.44;10173487;29;20052;-65
2023/04/14 17:42:00;;;;;;;2.05;0.40;;;;;;;20.71;29.46;99369.19;10172798;29;20052;-65
2023/04/14 17:47:10;;;;;;;3.10;0.60;;;;;;;20.18;30.01;99378.19;10173864;29;20045;-65
2023/04/14 17:52:11;;;;;;;2.47;0.35;;;;;;;19.71;30.35;99370.78;10174830;29;20052;-64
2023/04/14 17:57:12;;;;;;;1.10;0.30;;;;;;;19.29;31.44;99374.16;10174781;29;20033;-64
2023/04/14 18:02:15;;;;;;;2.63;0.50;;;;;;;18.87;32.44;99371.28;10182831;29;20052;-62
2023/04/14 18:07:16;;;;;;;3.30;0.70;;;;;;;18.43;33.12;99374.78;10171182;29;20036;-63
2023/04/14 18:12:19;;;;;;;3.22;1.10;;;;;;;18.03;34.52;99379.41;10174485;29;20053;-64
2023/04/14 18:17:21;;;;;;;6.05;1.13;;;;;;;17.68;35.77;99384.25;10171620;29;20037;-64
2023/04/14 18:22:23;;;;;;;4.28;1.33;;;;;;;17.37;36.80;99381.00;10169534;29;20033;-64
2023/04/14 18:27:25;;;;;;;2.88;0.80;;;;;;;16.99;37.58;99385.19;10174941;29;20041;-64
2023/04/14 18:32:30;;;;;;;5.57;1.23;;;;;;;16.68;37.98;99389.97;10168677;29;20068;-63
2023/04/14 18:37:32;;;;;;;5.47;1.27;;;;;;;16.41;38.28;99400.50;10174470;29;20036;-66
2023/04/14 18:42:34;;;;;;;3.50;1.45;;;;;;;16.03;38.51;99399.97;10168606;29;20048;-65
2023/04/14 18:47:36;;;;;;;3.55;0.80;;;;;;;15.81;39.37;99404.28;10172416;29;20040;-64
2023/04/14 18:52:38;;;;;;;5.68;1.15;;;;;;;15.46;39.36;99397.72;10152890;29;20059;-64
2023/04/14 18:57:40;;;;;;;8.40;2.35;;;;;;;15.14;40.00;99407.94;10166996;29;20111;-63
2023/04/14 19:02:42;;;;;;;6.53;1.83;;;;;;;14.68;40.94;99415.59;10172676;29;20144;-64
2023/04/14 19:07:44;;;;;;;7.70;2.50;;;;;;;14.28;42.36;99412.50;10172982;29;20060;-65
2023/04/14 19:12:45;;;;;;;16.27;6.30;;;;;;;14.01;42.93;99417.31;10163544;29;20072;-65
2023/04/14 19:17:49;;;;;;;16.02;5.05;;;;;;;13.94;43.01;99417.38;10186584;29;20051;-65
2023/04/14 19:22:51;;;;;;;11.40;3.85;;;;;;;13.66;44.30;99431.28;10160506;29;20104;-65
2023/04/14 19:27:55;;;;;;;12.25;4.72;;;;;;;13.32;45.50;99440.66;10163984;29;20068;-66
2023/04/14 19:32:57;;;;;;;9.27;2.40;;;;;;;13.14;45.84;99435.97;10160209;29;20077;-65
2023/04/14 19:37:59;;;;;;;5.82;2.53;;;;;;;13.09;46.47;99442.81;10174796;29;20101;-66
2023/04/14 19:43:03;;;;;;;7.40;2.92;;;;;;;12.96;47.47;99448.28;10158306;29;20075;-66
2023/04/14 19:48:05;;;;;;;5.10;1.70;;;;;;;12.79;48.06;99455.19;10143151;29;20064;-65
2023/04/14 19:53:23;;;;;;;6.30;1.85;;;;;;;12.39;48.69;99450.72;10156738;29;20056;-65
2023/04/14 19:58:27;;;;;;;9.32;2.53;;;;;;;12.26;48.90;99443.50;10159501;29;20040;-64
2023/04/14 20:03:28;;;;;;;5.88;2.70;;;;;;;12.21;49.13;99453.25;10175329;29;20129;-66
2023/04/14 20:08:33;;;;;;;11.35;4.15;;;;;;;11.97;49.29;99452.00;10167878;29;20044;-66
2023/04/14 20:13:36;;;;;;;7.95;3.33;;;;;;;11.77;49.67;99444.72;10163606;29;20063;-63
2023/04/14 20:18:39;;;;;;;5.13;1.90;;;;;;;11.68;49.87;99446.78;10171802;29;20044;-63
2023/04/14 20:23:40;;;;;;;2.70;1.70;;;;;;;11.62;50.00;99439.53;10151464;29;20046;-64
2023/04/14 20:28:42;;;;;;;5.50;2.47;;;;;;;11.64;50.15;99442.00;10179301;29;20040;-65
2023/04/14 20:33:44;;;;;;;10.98;3.40;;;;;;;11.57;50.49;99439.31;10172635;29;20100;-63
2023/04/14 20:38:45;;;;;;;10.52;3.97;;;;;;;11.41;51.14;99435.13;10177098;29;20032;-63
2023/04/14 20:43:46;;;;;;;12.45;6.25;;;;;;;11.26;51.11;99431.81;10170844;29;20044;-63
2023/04/14 20:48:48;;;;;;;13.13;4.68;;;;;;;11.03;51.93;99445.59;10179798;29;20073;-64
2023/04/14 20:53:49;;;;;;;10.85;3.63;;;;;;;10.97;52.04;99435.63;10159908;29;20033;-65
2023/04/14 20:58:51;;;;;;;6.60;2.08;;;;;;;10.82;52.36;99435.78;10165404;29;20045;-65
2023/04/14 21:03:53;;;;;;;4.13;2.30;;;;;;;10.65;53.01;99440.69;10163877;29;20048;-66
2023/04/14 21:08:55;;;;;;;6.18;2.15;;;;;;;10.62;53.03;99436.50;10174469;29;20112;-65
2023/04/14 21:13:57;;;;;;;11.27;5.25;;;;;;;10.61;53.07;99436.72;10165599;29;20097;-64
2023/04/14 21:19:18;;;;;;;10.63;4.78;;;;;;;10.48;53.10;99443.66;10164601;29;20056;-63
2023/04/14 21:24:20;;;;;;;10.00;4.03;;;;;;;10.36;53.57;99445.25;10158943;29;20053;-65
2023/04/14 21:29:21;;;;;;;5.68;2.10;;;;;;;10.27;53.81;99443.72;10158622;29;20040;-65
2023/04/14 21:34:26;;;;;;;5.00;1.52;;;;;;;10.16;54.01;99444.28;10151133;29;20060;-63
2023/04/14 21:39:28;;;;;;;6.68;1.92;;;;;;;10.08;53.67;99439.88;10140070;29;20040;-66
2023/04/14 21:44:30;;;;;;;4.40;1.40;;;;;;;10.04;54.17;99452.03;10173962;29;20037;-65
2023/04/14 21:49:31;;;;;;;4.78;1.30;;;;;;;10.08;54.01;99458.66;10158523;29;20033;-64
2023/04/14 21:54:34;;;;;;;5.30;1.75;;;;;;;10.01;54.17;99463.16;10174396;29;20104;-65
2023/04/14 21:59:35;;;;;;;4.65;1.83;;;;;;;9.90;54.71;99461.84;10141398;29;20088;-64
2023/04/14 22:04:36;;;;;;;6.60;1.83;;;;;;;9.47;55.59;99467.19;10174243;29;20084;-64
2023/04/14 22:09:39;;;;;;;6.55;1.88;;;;;;;9.35;55.86;99468.72;10157314;29;20057;-65
2023/04/14 22:14:42;;;;;;;3.75;1.63;;;;;;;9.31;56.29;99466.41;10156421;29;20492;-64
2023/04/14 22:19:43;;;;;;;8.60;1.58;;;;;;;9.33;56.19;99458.19;10163996;29;20045;-64
2023/04/14 22:24:45;;;;;;;5.28;2.15;;;;;;;9.39;55.53;99461.97;10157220;29;20048;-64
2023/04/14 22:29:46;;;;;;;8.32;2.20;;;;;;;9.45;55.62;99456.66;10168052;29;20061;-63
2023/04/14 22:34:48;;;;;;;4.40;1.80;;;;;;;9.47;55.91;99467.19;10156100;29;20084;-63
2023/04/14 22:39:50;;;;;;;5.22;2.22;;;;;;;9.43;55.65;99473.97;10169633;29;20037;-63
2023/04/14 22:44:53;;;;;;;3.28;1.98;;;;;;;9.39;56.13;99486.09;10170054;29;20072;-64
2023/04/14 22:49:54;;;;;;;3.25;1.83;;;;;;;9.33;56.16;99467.06;10152452;29;20060;-64
2023/04/14 22:54:56;;;;;;;4.75;2.70;;;;;;;9.31;56.35;99470.94;10170071;29;20049;-63
2023/04/14 22:59:57;;;;;;;4.35;2.90;;;;;;;9.27;56.80;99472.34;10151576;29;20073;-64
2023/04/14 23:04:58;;;;;;;6.57;3.05;;;;;;;9.27;56.82;99472.34;10165100;29;20147;-64
2023/04/14 23:10:00;;;;;;;4.85;2.33;;;;;;;9.22;57.25;99480.13;10168564;29;20068;-63
2023/04/14 23:15:03;;;;;;;5.63;2.55;;;;;;;9.15;57.51;99480.06;10167278;29;20039;-63
2023/04/14 23:20:05;;;;;;;5.70;3.55;;;;;;;9.04;57.12;99470.63;10168156;29;20044;-64
2023/04/14 23:25:08;;;;;;;4.82;3.15;;;;;;;8.99;57.45;99477.59;10168413;29;20056;-64
2023/04/14 23:30:10;;;;;;;7.38;2.67;;;;;;;8.98;57.49;99473.25;10166512;29;20060;-63
2023/04/14 23:35:12;;;;;;;5.82;2.78;;;;;;;8.93;57.49;99481.84;10157240;29;20073;-63
2023/04/14 23:40:13;;;;;;;3.92;1.60;;;;;;;8.84;57.89;99473.06;10176963;29;20036;-64